Time;durP1;ratioP1;P1;durP2;ratioP2;P2;SDS_P1;SDS_P2;PMS_P1;PMS_P2;Temp;Humidity;BMP_temperature;BMP_pressure;BME280_temperature;BME280_humidity;BME280_pressure;Samples;Min_cycle;Max_cycle;Signal;HPM_P1;HPM_P2
2022/03/17 00:02:25;;;;;;;21.90;9.10;;;;;;;7.00;73.38;101887.53;6050823;28;20296;-71
2022/03/17 00:05:20;;;;;;;21.05;9.85;;;;;;;7.00;72.92;101876.13;6052107;28;20033;-72
2022/03/17 00:08:16;;;;;;;20.10;10.23;;;;;;;6.99;72.99;101867.34;6051005;28;20033;-75
2022/03/17 00:11:11;;;;;;;21.45;9.18;;;;;;;6.99;72.99;101887.59;6050701;28;20131;-72
2022/03/17 00:14:07;;;;;;;26.25;9.88;;;;;;;7.00;73.48;101884.88;6050909;28;20041;-70
2022/03/17 00:17:02;;;;;;;25.13;10.73;;;;;;;6.93;73.33;101874.81;6050261;28;20038;-74
2022/03/17 00:19:58;;;;;;;27.48;11.35;;;;;;;6.90;73.50;101881.09;6038919;28;20030;-70
2022/03/17 00:22:53;;;;;;;25.53;12.17;;;;;;;6.84;73.34;101884.13;6050522;28;20029;-72
2022/03/17 00:25:48;;;;;;;22.33;9.53;;;;;;;6.84;74.10;101878.88;6051261;28;20040;-69
2022/03/17 00:28:43;;;;;;;27.53;10.57;;;;;;;6.79;73.48;101880.94;6050573;28;20083;-72
2022/03/17 00:31:39;;;;;;;24.47;12.20;;;;;;;6.72;74.28;101871.69;6050049;28;20485;-72
2022/03/17 00:35:35;;;;;;;24.63;11.73;;;;;;;6.77;73.60;101880.16;6051139;28;20038;-73
2022/03/17 00:37:53;;;;;;;26.20;12.98;;;;;;;6.72;73.90;101869.03;6051252;28;20381;-70
2022/03/17 00:40:49;;;;;;;25.92;11.45;;;;;;;6.68;74.26;101861.44;6050368;28;20030;-72
2022/03/17 00:43:44;;;;;;;28.07;12.10;;;;;;;6.66;74.68;101868.59;6050594;28;20034;-73
2022/03/17 00:46:39;;;;;;;28.47;13.70;;;;;;;6.64;74.98;101859.91;6050441;28;20030;-74
2022/03/17 00:49:34;;;;;;;29.43;12.00;;;;;;;6.62;75.21;101854.75;6050965;28;20029;-70
2022/03/17 00:52:30;;;;;;;27.27;11.03;;;;;;;6.58;74.63;101850.59;6049046;28;20044;-73
2022/03/17 00:55:25;;;;;;;31.57;13.03;;;;;;;6.57;75.43;101857.66;6051140;28;20370;-73
2022/03/17 00:58:22;;;;;;;30.17;11.10;;;;;;;6.52;75.09;101846.53;6050451;28;20022;-71
2022/03/17 01:01:18;;;;;;;28.58;11.07;;;;;;;6.57;74.78;101854.19;6050346;28;20763;-74
2022/03/17 01:04:13;;;;;;;30.25;12.00;;;;;;;6.52;75.77;101858.88;6049947;28;20030;-71
2022/03/17 01:07:08;;;;;;;26.77;12.07;;;;;;;6.52;76.03;101861.50;6049667;28;20041;-74
2022/03/17 01:10:05;;;;;;;27.03;12.90;;;;;;;6.51;75.72;101852.75;6038232;28;20021;-71
2022/03/17 01:13:03;;;;;;;28.10;11.70;;;;;;;6.43;75.94;101851.50;6048433;28;20172;-73
2022/03/17 01:15:58;;;;;;;28.50;13.57;;;;;;;6.41;76.10;101854.22;6049986;28;20030;-71
2022/03/17 01:18:53;;;;;;;29.03;12.53;;;;;;;6.39;76.27;101853.47;6050408;28;20034;-71
2022/03/17 01:21:50;;;;;;;28.60;12.90;;;;;;;6.40;76.10;101846.44;6049181;28;20280;-72
2022/03/17 01:24:47;;;;;;;29.45;12.20;;;;;;;6.39;76.80;101844.72;6049618;28;20026;-73
2022/03/17 01:27:43;;;;;;;26.75;11.00;;;;;;;6.41;76.82;101848.13;6049181;28;20033;-73
2022/03/17 01:30:38;;;;;;;28.88;12.65;;;;;;;6.39;76.77;101842.09;6039074;28;20062;-73
2022/03/17 01:33:34;;;;;;;32.87;13.60;;;;;;;6.38;77.54;101854.44;6050100;28;20446;-73
2022/03/17 01:36:30;;;;;;;33.10;15.05;;;;;;;6.37;77.50;101847.47;6044260;28;20025;-72
2022/03/17 01:39:25;;;;;;;33.75;14.32;;;;;;;6.36;77.16;101842.28;6049927;28;20722;-71
2022/03/17 01:42:20;;;;;;;31.07;13.13;;;;;;;6.40;77.44;101851.69;6048979;28;20050;-73
2022/03/17 01:45:16;;;;;;;28.70;12.77;;;;;;;6.38;76.78;101857.06;6050139;28;20021;-70
2022/03/17 01:48:12;;;;;;;26.92;12.30;;;;;;;6.34;77.36;101860.81;6048939;28;20613;-70
2022/03/17 01:51:07;;;;;;;26.67;11.53;;;;;;;6.32;77.29;101854.78;6048778;28;20030;-75
2022/03/17 01:54:02;;;;;;;32.38;12.82;;;;;;;6.37;77.25;101859.78;6048977;28;20044;-73
2022/03/17 01:57:00;;;;;;;29.02;13.13;;;;;;;6.34;77.21;101871.34;6049309;28;20021;-73
2022/03/17 01:59:56;;;;;;;37.50;15.90;;;;;;;6.24;77.94;101854.41;6049885;28;20026;-70
2022/03/17 02:02:51;;;;;;;31.67;13.10;;;;;;;6.21;78.84;101862.47;6047412;28;20034;-74
2022/03/17 02:05:47;;;;;;;32.95;13.15;;;;;;;6.14;78.81;101858.50;6049517;28;20026;-72
2022/03/17 02:08:42;;;;;;;33.70;13.50;;;;;;;6.15;79.21;101847.03;6049544;28;20030;-73
2022/03/17 02:14:51;;;;;;;39.25;15.93;;;;;;;6.15;78.63;101847.03;6049711;28;20034;-73
2022/03/17 02:17:47;;;;;;;36.17;14.30;;;;;;;6.12;78.69;101847.19;6048731;28;20037;-72
2022/03/17 02:20:42;;;;;;;30.70;14.27;;;;;;;6.15;79.21;101840.91;6048147;28;20053;-71
2022/03/17 02:26:52;;;;;;;34.30;12.02;;;;;;;6.15;79.14;101825.09;6049593;28;20046;-72
2022/03/17 02:29:47;;;;;;;30.90;14.57;;;;;;;6.11;78.75;101823.59;6064019;28;20034;-74
2022/03/17 02:32:43;;;;;;;33.57;14.40;;;;;;;6.08;79.08;101814.09;6048593;28;20053;-74
2022/03/17 02:35:39;;;;;;;38.78;13.32;;;;;;;6.05;78.94;101813.44;6049365;28;20022;-75
2022/03/17 02:38:35;;;;;;;34.25;15.18;;;;;;;6.05;79.60;101819.53;6048973;28;20033;-71
2022/03/17 02:41:31;;;;;;;34.58;13.07;;;;;;;6.03;79.04;101815.31;6048235;28;20097;-73
2022/03/17 02:44:26;;;;;;;33.55;15.32;;;;;;;6.05;79.16;101821.31;6048772;28;20037;-71
2022/03/17 02:47:22;;;;;;;33.77;15.00;;;;;;;6.00;79.61;101821.59;6049006;28;20037;-74
2022/03/17 02:50:18;;;;;;;31.83;12.13;;;;;;;5.99;80.04;101812.00;6048757;28;20069;-72
2022/03/17 02:53:14;;;;;;;36.58;14.82;;;;;;;5.96;80.50;101810.41;6052794;28;20084;-71
2022/03/17 02:56:09;;;;;;;35.33;14.25;;;;;;;5.93;80.11;101800.03;6053276;28;20424;-74
2022/03/17 02:59:05;;;;;;;38.10;14.10;;;;;;;5.90;79.99;101799.38;6053441;28;20057;-71
2022/03/17 03:02:04;;;;;;;38.77;15.07;;;;;;;5.89;80.71;101790.66;6052445;28;20875;-73
2022/03/17 03:04:59;;;;;;;41.33;16.83;;;;;;;5.90;80.31;101786.19;6052935;28;20040;-75
2022/03/17 03:07:55;;;;;;;36.55;14.60;;;;;;;5.91;80.51;101796.66;6052915;28;20033;-72
2022/03/17 03:10:50;;;;;;;37.97;14.87;;;;;;;5.88;80.75;101785.44;6052806;28;20429;-72
2022/03/17 03:13:45;;;;;;;36.53;13.73;;;;;;;5.89;80.15;101787.16;6052698;28;20273;-72
2022/03/17 03:16:41;;;;;;;42.50;15.60;;;;;;;5.86;80.43;101787.34;6053111;28;20103;-70
2022/03/17 03:19:36;;;;;;;42.87;17.93;;;;;;;5.85;80.93;101778.59;6053035;28;20322;-72
2022/03/17 03:22:37;;;;;;;39.53;15.45;;;;;;;5.87;80.95;101784.59;6051338;28;20288;-74
2022/03/17 03:25:32;;;;;;;44.30;15.98;;;;;;;5.85;80.78;101785.63;6053364;28;20061;-73
2022/03/17 03:28:27;;;;;;;40.57;17.67;;;;;;;5.83;80.66;101783.06;6052051;28;20040;-73
2022/03/17 03:31:23;;;;;;;45.30;18.17;;;;;;;5.77;81.13;101783.41;6052103;28;20465;-73
2022/03/17 03:34:18;;;;;;;36.40;16.30;;;;;;;5.76;81.31;101779.06;6052649;28;20113;-72
2022/03/17 03:37:26;;;;;;;38.92;14.90;;;;;;;5.71;81.35;101773.25;6052569;28;20036;-72
2022/03/17 03:40:21;;;;;;;36.20;14.38;;;;;;;5.71;81.29;101780.28;6051775;28;20521;-74
2022/03/17 03:43:16;;;;;;;36.40;15.45;;;;;;;5.72;81.49;101774.09;6051723;28;20033;-71
2022/03/17 03:46:12;;;;;;;35.43;14.97;;;;;;;5.72;81.95;101771.47;6051935;28;20057;-73
2022/03/17 03:49:07;;;;;;;43.83;16.70;;;;;;;5.71;81.85;101762.72;6052137;28;20290;-72
2022/03/17 03:52:02;;;;;;;41.23;15.60;;;;;;;5.73;81.25;101775.81;6041869;28;20026;-72
2022/03/17 03:54:58;;;;;;;37.22;15.25;;;;;;;5.74;81.72;101775.69;6049653;28;20044;-73
2022/03/17 03:57:54;;;;;;;37.63;15.57;;;;;;;5.77;81.71;101772.88;6052487;28;20034;-73
2022/03/17 04:00:50;;;;;;;36.30;15.07;;;;;;;5.76;80.88;101776.44;6051727;28;20750;-73
2022/03/17 04:03:45;;;;;;;44.93;18.03;;;;;;;5.74;81.54;101766.94;6044860;28;20034;-74
2022/03/17 04:06:45;;;;;;;36.53;15.37;;;;;;;5.75;82.04;101782.66;6052349;28;20036;-74
2022/03/17 04:09:42;;;;;;;35.28;14.25;;;;;;;5.75;80.98;101779.19;6051245;28;20285;-72
2022/03/17 04:12:37;;;;;;;36.67;13.40;;;;;;;5.75;81.29;101780.03;6051544;28;20092;-71
2022/03/17 04:15:32;;;;;;;43.43;17.57;;;;;;;5.77;81.52;101774.66;6051773;28;20026;-73
2022/03/17 04:18:27;;;;;;;31.10;15.17;;;;;;;5.77;81.58;101783.41;6051788;28;20040;-73
2022/03/17 04:21:23;;;;;;;40.30;14.87;;;;;;;5.74;81.75;101767.81;6050743;28;20026;-74
2022/03/17 04:24:19;;;;;;;38.30;17.03;;;;;;;5.73;82.14;101766.13;6051352;28;20053;-72
2022/03/17 04:27:14;;;;;;;36.10;15.02;;;;;;;5.75;81.52;101769.50;6051231;28;20273;-75
2022/03/17 04:30:10;;;;;;;40.40;15.23;;;;;;;5.75;81.23;101761.63;6038311;28;20069;-74
2022/03/17 04:33:05;;;;;;;38.88;17.13;;;;;;;5.76;81.84;101765.91;6051249;28;20045;-71
2022/03/17 04:36:05;;;;;;;33.27;15.63;;;;;;;5.83;80.58;101767.28;6051722;28;20033;-75
2022/03/17 04:39:03;;;;;;;40.83;17.40;;;;;;;5.80;81.09;101762.19;6051237;28;20033;-73
2022/03/17 04:41:59;;;;;;;41.47;19.17;;;;;;;5.82;81.37;101762.09;6050814;28;20034;-74
2022/03/17 04:44:55;;;;;;;36.73;15.43;;;;;;;5.85;80.75;101762.78;6051111;28;20036;-73
2022/03/17 04:47:50;;;;;;;34.78;15.70;;;;;;;5.85;81.07;101751.41;6050976;28;20029;-72
2022/03/17 04:50:46;;;;;;;42.00;18.73;;;;;;;5.84;80.93;101753.16;6050403;28;20040;-73
2022/03/17 04:53:41;;;;;;;45.33;19.52;;;;;;;5.82;81.48;101748.91;6050590;28;20621;-72
2022/03/17 04:56:36;;;;;;;38.55;17.08;;;;;;;5.79;80.59;101734.16;6051100;28;20112;-74
2022/03/17 04:59:32;;;;;;;41.23;17.57;;;;;;;5.84;80.85;101750.53;6048603;28;20108;-74
2022/03/17 05:02:27;;;;;;;46.85;17.70;;;;;;;5.82;81.52;101751.56;6050017;28;20109;-73
2022/03/17 05:05:23;;;;;;;42.33;18.27;;;;;;;5.83;81.48;101759.38;6050778;28;20021;-76
2022/03/17 05:08:18;;;;;;;42.23;18.70;;;;;;;5.83;80.44;101759.38;6050305;28;20524;-74
2022/03/17 05:11:14;;;;;;;38.80;15.02;;;;;;;5.78;80.40;101753.53;6047343;28;20034;-75
2022/03/17 05:14:09;;;;;;;44.27;18.13;;;;;;;5.75;81.93;101758.97;6050160;28;20069;-73
2022/03/17 05:17:04;;;;;;;40.77;16.60;;;;;;;5.76;81.72;101765.91;6050863;28;20032;-74
2022/03/17 05:20:00;;;;;;;40.78;16.40;;;;;;;5.72;81.89;101759.16;6050213;28;20025;-75
2022/03/17 05:22:55;;;;;;;42.97;18.67;;;;;;;5.65;81.38;101747.31;6050224;28;20050;-73
2022/03/17 05:25:51;;;;;;;42.80;17.10;;;;;;;5.71;81.77;101767.13;6049581;28;20445;-71
2022/03/17 05:28:46;;;;;;;43.20;19.40;;;;;;;5.67;81.96;101769.09;6047247;28;20041;-72
2022/03/17 05:31:42;;;;;;;46.10;20.77;;;;;;;5.66;81.42;101775.28;6049737;28;20057;-74
2022/03/17 05:34:37;;;;;;;49.90;18.95;;;;;;;5.67;81.66;101778.78;6049233;28;20021;-74
2022/03/17 05:37:34;;;;;;;45.63;18.85;;;;;;;5.69;82.55;101782.16;6060439;28;20064;-75
2022/03/17 05:40:29;;;;;;;42.20;15.75;;;;;;;5.70;82.01;101782.09;6053361;28;20026;-73
2022/03/17 05:43:24;;;;;;;44.20;17.20;;;;;;;5.71;81.84;101789.03;6054226;28;20088;-73
2022/03/17 05:46:20;;;;;;;37.27;15.47;;;;;;;5.73;81.24;101786.31;6050107;28;20025;-77
2022/03/17 05:49:16;;;;;;;42.10;17.75;;;;;;;5.76;81.38;101796.69;6050065;28;20485;-72
2022/03/17 05:52:11;;;;;;;44.63;16.70;;;;;;;5.72;81.76;101796.00;6049287;28;20117;-74
2022/03/17 05:55:07;;;;;;;42.50;17.43;;;;;;;5.73;81.94;101802.97;6049305;28;20041;-73
2022/03/17 05:58:03;;;;;;;40.63;15.40;;;;;;;5.75;82.08;101800.22;6048862;28;20061;-73
2022/03/17 06:00:59;;;;;;;48.50;19.35;;;;;;;5.72;82.09;101810.94;6044180;28;20053;-73
2022/03/17 06:03:55;;;;;;;42.03;19.50;;;;;;;5.75;81.64;101816.88;6041328;28;20480;-73
2022/03/17 06:06:51;;;;;;;42.45;17.73;;;;;;;5.75;81.46;101811.63;6049045;28;20030;-73
2022/03/17 06:09:46;;;;;;;39.00;16.00;;;;;;;5.76;81.48;101818.56;6049159;28;20030;-72
2022/03/17 06:12:43;;;;;;;40.00;16.50;;;;;;;5.73;82.28;101813.50;6048476;28;20026;-71
2022/03/17 06:15:38;;;;;;;41.95;17.98;;;;;;;5.73;82.06;101816.13;6049784;28;20384;-70
2022/03/17 06:18:34;;;;;;;44.80;19.37;;;;;;;5.72;81.83;101814.41;6049214;28;20025;-74
2022/03/17 06:21:29;;;;;;;44.53;19.58;;;;;;;5.77;82.47;101812.38;6048739;28;20030;-70
2022/03/17 06:24:25;;;;;;;40.30;16.53;;;;;;;5.73;82.11;101815.28;6049115;28;20370;-71
2022/03/17 06:27:20;;;;;;;40.97;15.50;;;;;;;5.73;82.59;101810.88;6052314;28;20058;-73
2022/03/17 06:30:22;;;;;;;47.20;19.47;;;;;;;5.75;82.39;101816.03;6053339;28;20116;-72
2022/03/17 06:33:17;;;;;;;46.92;19.33;;;;;;;5.73;82.00;101818.75;6053429;28;20080;-73
2022/03/17 06:36:13;;;;;;;43.07;18.83;;;;;;;5.79;82.18;101820.16;6053556;28;20029;-73
2022/03/17 06:39:08;;;;;;;46.63;20.13;;;;;;;5.79;81.60;101823.66;6054057;28;20022;-71
2022/03/17 06:42:04;;;;;;;47.47;18.83;;;;;;;5.84;81.53;101828.66;6052612;28;20280;-71
2022/03/17 06:44:59;;;;;;;39.22;16.55;;;;;;;5.85;81.95;101828.59;6053660;28;20033;-71
2022/03/17 06:47:55;;;;;;;45.58;18.15;;;;;;;5.87;81.80;101842.50;6053289;28;20113;-73
2022/03/17 06:50:50;;;;;;;50.78;19.80;;;;;;;5.91;81.13;101840.56;6053173;28;20109;-70
2022/03/17 06:53:45;;;;;;;43.93;18.43;;;;;;;5.94;81.45;101835.13;6053662;28;20041;-74
2022/03/17 06:56:41;;;;;;;44.77;20.17;;;;;;;5.95;81.26;101829.75;6053675;28;20550;-70
2022/03/17 06:59:36;;;;;;;42.67;18.10;;;;;;;5.98;81.80;101826.09;6052881;28;20580;-74
2022/03/17 07:02:31;;;;;;;48.87;21.00;;;;;;;6.03;81.10;101839.00;6049805;28;20092;-70
2022/03/17 07:05:27;;;;;;;39.60;16.77;;;;;;;6.05;80.95;101840.59;6044795;28;20017;-72
2022/03/17 07:08:23;;;;;;;45.35;17.52;;;;;;;6.12;80.00;101846.34;6050821;28;20037;-74
2022/03/17 07:11:20;;;;;;;46.57;17.83;;;;;;;6.16;80.30;101851.38;6046528;28;20167;-72
2022/03/17 07:14:16;;;;;;;42.22;19.10;;;;;;;6.23;80.77;101865.00;6052858;28;20022;-70
2022/03/17 07:17:11;;;;;;;46.73;17.23;;;;;;;6.20;80.18;101859.91;6051793;28;20088;-71
2022/03/17 07:20:14;;;;;;;43.60;18.30;;;;;;;6.23;80.79;101865.84;6051742;28;20108;-72
2022/03/17 07:23:09;;;;;;;49.22;19.02;;;;;;;6.18;80.17;101862.66;6051509;28;20275;-72
2022/03/17 07:26:04;;;;;;;47.63;19.43;;;;;;;6.25;80.76;101858.69;6051873;28;20037;-74
2022/03/17 07:29:01;;;;;;;45.93;19.57;;;;;;;6.28;80.00;101852.41;6049350;28;20390;-74
2022/03/17 07:31:57;;;;;;;41.65;17.13;;;;;;;6.34;80.68;101862.59;6051706;28;20030;-74
2022/03/17 07:34:52;;;;;;;41.80;17.60;;;;;;;6.43;80.16;101868.19;6051819;28;20056;-71
2022/03/17 07:37:47;;;;;;;45.37;18.87;;;;;;;6.47;79.18;101869.66;6051685;28;20038;-72
2022/03/17 07:40:43;;;;;;;41.67;18.00;;;;;;;6.62;79.44;101867.91;6051018;28;20488;-73
2022/03/17 07:43:38;;;;;;;46.05;19.25;;;;;;;6.66;79.46;101873.88;6051561;28;20034;-72
2022/03/17 07:46:33;;;;;;;43.73;18.07;;;;;;;6.71;79.32;101877.91;6051262;28;20038;-71
2022/03/17 07:49:29;;;;;;;47.80;17.53;;;;;;;6.76;78.40;101869.72;6051469;28;20164;-71
2022/03/17 07:52:24;;;;;;;41.30;17.77;;;;;;;6.72;79.18;101884.88;6051099;28;20033;-74
2022/03/17 07:55:20;;;;;;;41.22;17.60;;;;;;;6.82;78.86;101885.16;6052139;28;20029;-73
2022/03/17 07:58:15;;;;;;;44.17;19.58;;;;;;;6.93;78.81;101888.81;6051092;28;20055;-72
2022/03/17 08:01:11;;;;;;;43.00;18.88;;;;;;;7.00;77.84;101890.16;6049248;28;20418;-72
2022/03/17 08:04:06;;;;;;;46.17;17.88;;;;;;;7.11;78.28;101886.84;6051723;28;20504;-71
2022/03/17 08:07:03;;;;;;;42.47;18.40;;;;;;;7.17;77.23;101891.75;6050775;28;20381;-74
2022/03/17 08:09:59;;;;;;;42.88;19.40;;;;;;;7.24;77.20;101897.50;6051706;28;20295;-73
2022/03/17 08:12:55;;;;;;;42.85;17.92;;;;;;;7.31;76.47;101888.25;6046175;28;20029;-73
2022/03/17 08:15:50;;;;;;;43.90;19.92;;;;;;;7.33;76.87;101897.78;6050786;28;20384;-73
2022/03/17 08:18:45;;;;;;;48.27;20.13;;;;;;;7.30;75.70;101894.47;6049525;28;20380;-73
2022/03/17 08:21:41;;;;;;;43.60;17.57;;;;;;;7.43;76.43;101892.75;6050410;28;20026;-72
2022/03/17 08:24:36;;;;;;;46.22;20.05;;;;;;;7.48;76.20;101896.78;6051119;28;20034;-72
2022/03/17 08:27:31;;;;;;;40.60;19.27;;;;;;;7.70;75.50;101906.84;6051057;28;20354;-71
2022/03/17 08:30:27;;;;;;;44.57;19.00;;;;;;;7.75;75.95;101910.03;6049164;28;20288;-74
2022/03/17 08:33:23;;;;;;;42.33;18.07;;;;;;;7.88;75.92;101912.75;6050471;28;20469;-72
2022/03/17 08:36:18;;;;;;;42.17;19.30;;;;;;;7.89;75.55;101912.63;6051386;28;20030;-74
2022/03/17 08:39:13;;;;;;;40.80;16.93;;;;;;;7.95;75.16;101914.88;6050037;28;20014;-74
2022/03/17 08:42:08;;;;;;;40.20;17.17;;;;;;;7.92;75.26;101917.72;6048261;28;20373;-73
2022/03/17 08:49:18;;;;;;;39.40;17.43;;;;;;;7.92;74.73;101919.50;6059534;28;20044;-74
2022/03/17 08:51:35;;;;;;;43.67;18.05;;;;;;;8.08;74.57;101923.69;6046687;28;20041;-71
2022/03/17 08:54:33;;;;;;;41.17;18.40;;;;;;;8.16;74.12;101929.31;6048925;28;20438;-74
2022/03/17 08:57:28;;;;;;;45.85;18.42;;;;;;;8.26;74.72;101914.53;6050092;28;20030;-74
2022/03/17 09:00:24;;;;;;;41.28;16.83;;;;;;;8.42;74.21;101918.84;6049942;28;20503;-70
2022/03/17 09:03:19;;;;;;;44.17;18.00;;;;;;;8.37;74.57;101913.84;6048228;28;20038;-72
2022/03/17 09:06:14;;;;;;;45.17;18.63;;;;;;;8.46;73.62;101923.81;6049905;28;20095;-71
2022/03/17 09:09:11;;;;;;;38.27;16.20;;;;;;;8.70;73.03;101931.91;6050590;28;20057;-74
2022/03/17 09:12:07;;;;;;;32.50;15.63;;;;;;;9.01;70.50;101930.66;6049371;28;20116;-73
2022/03/17 09:15:03;;;;;;;41.30;16.80;;;;;;;9.06;69.78;101929.38;6050393;28;20472;-72
2022/03/17 09:17:58;;;;;;;35.65;16.75;;;;;;;9.19;69.07;101930.22;6050111;28;20037;-74
2022/03/17 09:20:53;;;;;;;35.20;15.50;;;;;;;9.22;68.50;101945.88;6049690;28;20029;-72
2022/03/17 09:23:49;;;;;;;31.40;15.00;;;;;;;9.25;67.62;101945.69;6050594;28;20053;-70
2022/03/17 09:26:45;;;;;;;33.53;16.73;;;;;;;9.29;66.93;101947.16;6049696;28;20033;-72
2022/03/17 09:29:41;;;;;;;35.45;16.75;;;;;;;9.32;66.64;101941.63;6050125;28;20516;-73
2022/03/17 09:32:36;;;;;;;35.00;15.63;;;;;;;9.36;66.47;101947.56;6049280;28;20041;-70
2022/03/17 09:35:32;;;;;;;36.47;16.50;;;;;;;9.35;67.05;101951.16;6049910;28;20276;-71
2022/03/17 09:38:27;;;;;;;34.22;16.73;;;;;;;9.32;67.40;101946.09;6048941;28;20038;-73
2022/03/17 09:41:32;;;;;;;36.27;16.30;;;;;;;9.32;67.43;101956.69;6048884;28;20453;-73
2022/03/17 09:44:28;;;;;;;30.33;14.13;;;;;;;9.34;66.45;101960.91;6064186;28;20028;-71
2022/03/17 09:47:27;;;;;;;31.55;14.52;;;;;;;9.36;66.85;101963.44;6049710;28;20040;-73
2022/03/17 09:50:23;;;;;;;37.25;16.95;;;;;;;9.30;66.22;101967.38;6047662;28;20458;-71
2022/03/17 09:53:18;;;;;;;34.87;15.20;;;;;;;9.32;66.91;101973.41;6065165;28;20108;-70
2022/03/17 09:56:13;;;;;;;32.83;14.33;;;;;;;9.26;66.82;101965.06;6050133;28;20264;-71
2022/03/17 09:59:08;;;;;;;36.93;16.57;;;;;;;9.30;66.53;101974.47;6049538;28;20041;-72
2022/03/17 10:02:04;;;;;;;34.33;15.27;;;;;;;9.22;68.07;101988.22;6044431;28;20034;-73
2022/03/17 10:05:00;;;;;;;34.73;16.17;;;;;;;9.10;68.15;101989.09;6049334;28;20032;-74
2022/03/17 10:07:56;;;;;;;35.58;16.33;;;;;;;9.00;69.89;101998.59;6047555;28;20034;-69
2022/03/17 10:10:52;;;;;;;35.30;16.52;;;;;;;8.81;71.65;102008.72;6039628;28;20041;-72
2022/03/17 10:13:47;;;;;;;37.03;15.90;;;;;;;8.60;73.13;102004.88;6049463;28;20030;-72
2022/03/17 10:16:42;;;;;;;36.20;16.13;;;;;;;8.44;74.63;102012.09;6048992;28;20057;-73
2022/03/17 10:19:38;;;;;;;35.70;15.70;;;;;;;8.32;76.22;102021.69;6047395;28;20026;-71
2022/03/17 10:22:40;;;;;;;42.97;18.33;;;;;;;8.17;77.62;102023.50;6048187;28;20030;-71
2022/03/17 10:25:37;;;;;;;43.13;17.30;;;;;;;8.10;79.34;102038.03;6048969;28;20296;-71
2022/03/17 10:28:32;;;;;;;39.92;17.75;;;;;;;7.92;81.11;102046.28;6049034;28;20029;-71
2022/03/17 10:31:27;;;;;;;38.50;17.70;;;;;;;7.84;81.19;102038.84;6048323;28;20030;-71
2022/03/17 10:34:26;;;;;;;41.40;17.77;;;;;;;7.70;82.99;102054.69;6049249;28;20096;-69
2022/03/17 10:37:24;;;;;;;41.53;18.00;;;;;;;7.57;84.14;102054.59;6040686;28;20283;-70
2022/03/17 10:40:28;;;;;;;43.08;19.38;;;;;;;7.52;84.60;102061.09;6045276;28;20096;-70
2022/03/17 10:43:25;;;;;;;40.95;17.95;;;;;;;7.47;85.44;102069.31;6048400;28;20030;-71
2022/03/17 10:46:20;;;;;;;42.10;18.50;;;;;;;7.43;85.98;102077.47;6048273;28;20036;-70
2022/03/17 10:49:16;;;;;;;46.40;19.92;;;;;;;7.37;86.39;102077.84;6049161;28;20022;-71
2022/03/17 10:52:11;;;;;;;47.43;20.40;;;;;;;7.37;86.19;102088.38;6048460;28;20033;-72
2022/03/17 10:55:11;;;;;;;47.93;19.70;;;;;;;7.31;87.84;102094.06;6048916;28;20271;-71
2022/03/17 10:58:13;;;;;;;40.20;20.13;;;;;;;7.25;88.72;102094.41;6048638;28;20057;-70
2022/03/17 11:01:09;;;;;;;47.45;21.60;;;;;;;7.27;88.69;102103.06;6047491;28;20416;-70
2022/03/17 11:04:05;;;;;;;49.65;19.15;;;;;;;7.28;88.95;102121.47;6049238;28;20041;-69
2022/03/17 11:07:00;;;;;;;40.95;18.70;;;;;;;7.31;89.16;102115.16;6048951;28;20038;-70
2022/03/17 11:09:56;;;;;;;51.03;20.50;;;;;;;7.23;90.30;102122.69;6064034;28;20022;-68
2022/03/17 11:12:51;;;;;;;46.78;20.55;;;;;;;7.33;90.63;102134.38;6050381;28;20057;-69
2022/03/17 11:16:02;;;;;;;48.95;19.88;;;;;;;7.34;91.15;102142.19;6053236;28;20473;-68
2022/03/17 11:18:57;;;;;;;42.67;18.58;;;;;;;7.36;90.84;102139.47;6049346;28;20033;-69
2022/03/17 11:22:09;;;;;;;45.83;19.80;;;;;;;7.25;91.38;102160.38;6046360;28;20037;-70
2022/03/17 11:25:28;;;;;;;45.72;19.95;;;;;;;7.28;92.00;102157.56;6053005;28;20504;-70
2022/03/17 11:28:34;;;;;;;48.78;20.38;;;;;;;7.26;92.91;102170.81;6052756;28;20351;-69
2022/03/17 11:31:48;;;;;;;48.67;20.92;;;;;;;7.28;93.35;102173.38;6050774;28;20037;-69
2022/03/17 11:34:46;;;;;;;45.22;21.05;;;;;;;7.19;93.21;102180.91;6052700;28;20049;-71
2022/03/17 11:37:43;;;;;;;53.67;23.00;;;;;;;7.20;94.00;102187.84;6052565;28;20164;-69
2022/03/17 11:41:01;;;;;;;52.47;21.15;;;;;;;7.28;94.22;102205.91;6051095;28;20045;-68
2022/03/17 11:43:56;;;;;;;59.60;22.77;;;;;;;7.25;94.44;102205.22;6052688;28;20038;-70
2022/03/17 11:46:56;;;;;;;58.80;23.73;;;;;;;7.18;94.12;102217.91;6051826;28;20044;-69
2022/03/17 11:49:51;;;;;;;61.33;23.65;;;;;;;7.14;94.76;102211.97;6051637;28;20037;-70
2022/03/17 11:53:08;;;;;;;51.10;21.80;;;;;;;7.11;95.15;102216.56;6052174;28;20038;-69
2022/03/17 11:56:04;;;;;;;51.05;18.85;;;;;;;7.14;94.90;102225.16;6052066;28;20344;-70
2022/03/17 11:58:59;;;;;;;41.67;17.15;;;;;;;7.08;95.77;102222.84;6051734;28;20389;-71
2022/03/17 12:01:55;;;;;;;35.13;14.17;;;;;;;7.00;95.78;102229.50;6051962;28;20081;-71
2022/03/17 12:04:51;;;;;;;24.25;9.68;;;;;;;6.94;95.31;102230.69;6050073;28;20033;-70
2022/03/17 12:07:47;;;;;;;21.73;9.50;;;;;;;6.91;95.10;102237.91;6049442;28;20080;-70
2022/03/17 12:11:01;;;;;;;18.25;8.38;;;;;;;6.92;95.53;102248.38;6045826;28;20473;-68
2022/03/17 12:14:17;;;;;;;17.85;8.25;;;;;;;6.92;94.94;102251.03;6050587;28;20022;-70
2022/03/17 12:17:12;;;;;;;19.38;8.15;;;;;;;6.92;94.97;102258.06;6051498;28;20084;-69
2022/03/17 12:20:14;;;;;;;19.38;8.32;;;;;;;6.88;94.99;102270.56;6051508;28;20033;-70
2022/03/17 12:23:47;;;;;;;17.17;7.85;;;;;;;6.84;95.65;102269.06;6050825;28;20061;-70
2022/03/17 12:26:42;;;;;;;19.73;8.13;;;;;;;6.80;95.49;102274.56;6051550;28;20030;-71
2022/03/17 12:29:41;;;;;;;22.83;9.67;;;;;;;6.84;95.25;102278.75;6051670;28;20381;-71
2022/03/17 12:32:39;;;;;;;20.83;8.98;;;;;;;6.85;95.82;102283.91;6051226;28;20017;-71
2022/03/17 12:35:35;;;;;;;23.33;8.85;;;;;;;6.91;95.75;102288.84;6051739;28;20026;-70
2022/03/17 12:38:31;;;;;;;23.90;9.38;;;;;;;6.92;96.24;102287.94;6051012;28;20041;-71
2022/03/17 12:41:28;;;;;;;24.60;9.65;;;;;;;6.94;95.45;102286.06;6050492;28;20033;-69
2022/03/17 12:44:24;;;;;;;20.08;8.10;;;;;;;7.03;96.37;102296.13;6051153;28;20044;-69
2022/03/17 12:47:22;;;;;;;20.00;8.75;;;;;;;6.99;95.98;102296.34;6051202;28;20026;-69
2022/03/17 12:50:18;;;;;;;21.30;9.00;;;;;;;7.04;95.82;102303.06;6050177;28;20030;-70
2022/03/17 12:53:14;;;;;;;29.23;9.07;;;;;;;7.04;96.19;102297.78;6051490;28;20030;-69
2022/03/17 12:56:09;;;;;;;24.98;9.23;;;;;;;7.05;95.88;102310.06;6050564;28;20032;-70
2022/03/17 12:59:05;;;;;;;20.17;8.40;;;;;;;7.04;95.78;102316.25;6050759;28;20034;-71
2022/03/17 13:02:00;;;;;;;20.93;8.77;;;;;;;7.00;95.38;102317.38;6050371;28;20478;-70
2022/03/17 13:04:57;;;;;;;15.17;7.47;;;;;;;7.00;95.63;102316.53;6049097;28;20039;-70
2022/03/17 13:07:53;;;;;;;21.48;8.70;;;;;;;7.02;95.74;102320.78;6051002;28;20732;-70
2022/03/17 13:14:22;;;;;;;16.10;8.00;;;;;;;7.07;95.49;102326.66;6050393;28;20034;-71
2022/03/17 13:17:42;;;;;;;19.85;7.72;;;;;;;7.08;95.35;102331.00;6049605;28;20034;-69
2022/03/17 13:20:37;;;;;;;15.30;7.72;;;;;;;7.11;95.50;102340.53;6050317;28;20464;-71
2022/03/17 13:23:35;;;;;;;18.23;7.37;;;;;;;7.14;94.62;102343.00;6050423;28;20045;-71
2022/03/17 13:26:31;;;;;;;13.98;7.60;;;;;;;7.17;94.94;102341.03;6050663;28;20072;-72
2022/03/17 13:29:26;;;;;;;15.60;7.17;;;;;;;7.23;94.76;102349.56;6049375;28;20034;-71
2022/03/17 13:32:23;;;;;;;13.40;6.77;;;;;;;7.31;94.70;102347.34;6049472;28;20026;-72
2022/03/17 13:35:18;;;;;;;16.58;7.28;;;;;;;7.32;93.79;102351.66;6050158;28;20437;-71
2022/03/17 13:38:18;;;;;;;14.23;7.13;;;;;;;7.33;92.74;102358.66;6050289;28;20026;-70
2022/03/17 13:41:20;;;;;;;15.10;6.40;;;;;;;7.29;92.68;102354.47;6049148;28;20018;-71
2022/03/17 13:44:15;;;;;;;13.88;6.13;;;;;;;7.29;92.67;102359.75;6050166;28;20026;-73
2022/03/17 13:47:12;;;;;;;14.23;6.73;;;;;;;7.32;92.24;102363.09;6049542;28;20033;-72
2022/03/17 13:50:20;;;;;;;9.43;5.00;;;;;;;7.35;91.87;102365.56;6049222;28;20097;-71